KNSE/NSE METAR and TAF weather

Enter ICAO airport designator
Station Type Date Time Source
KNSE METAR 2022/06/30 13:56 UTC NOAA

KNSE 301356Z VRB05KT 10SM FEW010 SCT025 SCT110 BKN250 27/23 A3015 RMK SLP193 T2 SET T02720233


Station Type Date Time Source
KNSE Decoded METAR 2022/06/30 13:56 UTC NOAA

MILTON WHITING FIELD (NORTH), FL, United States (KNSE) 30-44N 87-01W 60M
Jun 30, 2022 - 09:56 AM EDT / 2022.06.30 1356 UTC
Wind: Variable at 6 MPH (5 KT):0
Visibility: 10 mile(s):0
Sky conditions: mostly cloudy
Temperature: 81.0 F (27.2 C)
Dew Point: 73.9 F (23.3 C)
Relative Humidity: 79%
Pressure (altimeter): 30.15 in. Hg (1020 hPa)
ob: KNSE 301356Z VRB05KT 10SM FEW010 SCT025 SCT110 BKN250 27/23 A3015 RMK SLP193 T2 SET T02720233
cycle: 14

Station Type Date Time Source
KNSE TAF 2022/06/30 10:21 UTC NOAA

TAF COR KNSE 3010/0107 VRB06KT 9999 SCT120 QNH3010INS
BECMG 3013/3015 17010G15KT 9999 VCTS SCT030CB BKN120 BKN250 QNH3001INS
TEMPO 3015/3021 4800 TSRA BKN030CB OVC120
BECMG 3021/3023 VRB06KT 9999 NSW SCT030 SCT120 BKN250 QNH3000INS AUTOMATED SENSOR METWATCH 3010 TIL 3011 T22/3010Z T30/3018Z COR 1014 FN00259

Example: see airport list